Time;durP1;ratioP1;P1;durP2;ratioP2;P2;SDS_P1;SDS_P2;PMS_P1;PMS_P2;Temp;Humidity;BMP_temperature;BMP_pressure;BME280_temperature;BME280_humidity;BME280_pressure;Samples;Min_cycle;Max_cycle;Signal;HPM_P1;HPM_P2
2022/03/04 00:01:03;;;;;;;29.23;16.00;;;2.90;34.90;;;;;;4993713;28;20411;-76
2022/03/04 00:03:29;;;;;;;34.65;17.00;;;2.70;33.90;;;;;;4992998;28;20758;-75
2022/03/04 00:05:54;;;;;;;29.20;16.20;;;2.50;36.70;;;;;;4993949;28;20410;-75
2022/03/04 00:08:20;;;;;;;29.10;16.92;;;2.50;38.30;;;;;;4993819;28;20756;-75
2022/03/04 00:10:46;;;;;;;26.83;15.68;;;2.60;37.00;;;;;;4996956;28;20410;-76
2022/03/04 00:13:12;;;;;;;26.98;16.75;;;2.40;35.70;;;;;;5000584;28;20440;-77
2022/03/04 00:15:37;;;;;;;29.40;16.25;;;2.30;37.90;;;;;;4997173;28;20398;-76
2022/03/04 00:18:03;;;;;;;27.73;17.33;;;2.20;38.90;;;;;;4997135;28;20451;-76
2022/03/04 00:20:29;;;;;;;29.73;17.60;;;2.30;37.10;;;;;;4997668;28;20400;-75
2022/03/04 00:22:55;;;;;;;31.92;17.50;;;2.20;36.80;;;;;;4992533;28;20407;-76
2022/03/04 00:25:21;;;;;;;30.83;15.90;;;2.20;38.10;;;;;;4992271;28;20402;-76
2022/03/04 00:27:47;;;;;;;36.00;18.70;;;2.10;39.80;;;;;;4992387;28;20410;-75
2022/03/04 00:30:13;;;;;;;32.65;18.10;;;2.10;41.00;;;;;;4995704;28;20394;-75
2022/03/04 00:32:39;;;;;;;29.85;17.27;;;2.00;39.80;;;;;;4999441;28;20477;-76
2022/03/04 00:35:08;;;;;;;32.08;17.48;;;1.90;41.80;;;;;;4999058;28;20422;-75
2022/03/04 00:37:33;;;;;;;28.48;17.13;;;1.90;42.80;;;;;;4999743;28;20409;-75
2022/03/04 00:39:59;;;;;;;34.40;17.07;;;1.90;43.40;;;;;;4999267;28;20420;-75
2022/03/04 00:42:27;;;;;;;31.83;18.10;;;1.80;42.40;;;;;;4999106;28;20417;-75
2022/03/04 00:44:53;;;;;;;31.98;16.90;;;1.70;42.80;;;;;;4999263;28;20409;-75
2022/03/04 00:47:18;;;;;;;29.30;16.03;;;1.60;43.50;;;;;;4999678;28;20399;-76
2022/03/04 00:49:44;;;;;;;28.77;16.30;;;1.60;45.60;;;;;;5000641;28;20450;-75
2022/03/04 00:52:09;;;;;;;32.25;17.33;;;1.70;45.10;;;;;;4999797;28;20442;-75
2022/03/04 00:54:35;;;;;;;28.73;15.70;;;1.70;42.40;;;;;;4999162;28;20426;-76
2022/03/04 00:57:01;;;;;;;30.97;16.27;;;1.70;43.40;;;;;;4998997;28;20434;-76
2022/03/04 00:59:26;;;;;;;27.57;15.67;;;1.70;41.50;;;;;;4992304;28;20414;-76
2022/03/04 01:01:52;;;;;;;31.55;16.60;;;1.70;41.80;;;;;;4991754;28;20406;-76
2022/03/04 01:04:18;;;;;;;30.40;16.42;;;2.00;43.30;;;;;;4991727;28;20414;-76
2022/03/04 01:06:43;;;;;;;31.30;16.57;;;2.10;37.80;;;;;;4990612;28;20411;-76
2022/03/04 01:09:09;;;;;;;31.58;16.80;;;1.90;38.10;;;;;;4992507;28;20407;-76
2022/03/04 01:11:36;;;;;;;30.75;17.27;;;2.20;39.90;;;;;;4991736;28;20863;-76
2022/03/04 01:14:03;;;;;;;28.23;15.68;;;2.10;39.20;;;;;;4991536;28;20406;-76
2022/03/04 01:16:28;;;;;;;31.58;16.67;;;1.90;40.10;;;;;;4992380;28;20483;-76
2022/03/04 01:18:54;;;;;;;30.20;16.27;;;1.80;39.50;;;;;;4990877;28;20756;-75
2022/03/04 01:21:20;;;;;;;28.07;16.30;;;1.80;41.30;;;;;;4992412;28;20461;-75
2022/03/04 01:23:45;;;;;;;27.10;15.47;;;2.00;42.70;;;;;;4994459;28;20425;-75
2022/03/04 01:26:11;;;;;;;28.40;15.98;;;1.80;40.20;;;;;;4991348;28;20409;-75
2022/03/04 01:28:36;;;;;;;31.98;17.17;;;1.70;42.90;;;;;;4998769;28;20801;-75
2022/03/04 01:31:02;;;;;;;28.35;16.20;;;1.50;43.10;;;;;;5008506;28;20410;-74
2022/03/04 01:33:27;;;;;;;29.20;16.40;;;1.40;42.80;;;;;;5007767;28;20480;-75
2022/03/04 01:35:53;;;;;;;26.90;15.53;;;1.20;44.00;;;;;;5007793;28;20410;-74
2022/03/04 01:38:19;;;;;;;35.08;16.88;;;1.20;44.40;;;;;;5007778;28;20950;-75
2022/03/04 01:40:44;;;;;;;32.20;16.63;;;1.40;44.00;;;;;;5006401;28;20437;-75
2022/03/04 01:43:10;;;;;;;30.58;16.52;;;1.30;43.00;;;;;;4999675;28;20414;-75
2022/03/04 01:45:36;;;;;;;31.67;18.00;;;1.10;44.40;;;;;;4998396;28;20407;-75
2022/03/04 01:48:01;;;;;;;35.40;17.80;;;1.00;45.10;;;;;;4995368;28;20406;-75
2022/03/04 01:50:27;;;;;;;30.25;16.42;;;1.00;45.70;;;;;;4994986;28;20429;-76
2022/03/04 01:52:53;;;;;;;33.00;17.27;;;1.10;47.30;;;;;;4991374;28;20812;-75
2022/03/04 01:55:19;;;;;;;34.80;17.40;;;1.10;47.20;;;;;;4991524;28;20433;-75
2022/03/04 01:57:45;;;;;;;29.73;17.48;;;1.10;46.20;;;;;;4993117;28;20407;-75
2022/03/04 02:00:13;;;;;;;32.22;17.13;;;1.10;46.50;;;;;;4992041;28;20392;-75
2022/03/04 02:02:39;;;;;;;31.30;17.10;;;1.00;46.90;;;;;;4992461;28;20410;-75
2022/03/04 02:05:05;;;;;;;30.70;17.63;;;1.30;46.20;;;;;;4991442;28;20402;-75
2022/03/04 02:07:31;;;;;;;35.25;18.63;;;1.30;46.40;;;;;;4991293;28;20403;-75
2022/03/04 02:09:56;;;;;;;34.60;18.30;;;1.10;46.40;;;;;;4991595;28;20415;-75
2022/03/04 02:12:22;;;;;;;32.10;17.90;;;0.90;45.40;;;;;;4989980;28;20923;-74
2022/03/04 02:14:48;;;;;;;30.05;17.00;;;1.50;47.50;;;;;;4996739;28;20406;-75
2022/03/04 02:17:13;;;;;;;26.90;16.50;;;0.80;47.90;;;;;;5012458;28;20417;-73
2022/03/04 02:19:39;;;;;;;30.88;16.95;;;0.70;47.10;;;;;;5011522;28;20379;-75
2022/03/04 02:22:07;;;;;;;30.37;17.00;;;0.70;49.30;;;;;;5003565;28;20805;-75
2022/03/04 02:24:32;;;;;;;30.95;16.90;;;0.70;51.50;;;;;;4994640;28;21102;-76
2022/03/04 02:27:00;;;;;;;29.60;17.00;;;0.60;51.70;;;;;;4995700;28;20434;-75
2022/03/04 02:29:27;;;;;;;28.20;16.13;;;0.50;52.80;;;;;;4991175;28;20402;-76
2022/03/04 02:31:53;;;;;;;33.47;19.05;;;0.50;53.30;;;;;;4991715;28;20406;-77
2022/03/04 02:34:19;;;;;;;30.13;16.60;;;0.60;54.10;;;;;;4999386;28;20407;-77
2022/03/04 02:36:46;;;;;;;34.90;17.42;;;0.60;54.10;;;;;;5002443;28;21277;-75
2022/03/04 02:39:12;;;;;;;32.67;17.30;;;0.60;53.90;;;;;;4993553;28;20409;-76
2022/03/04 02:41:38;;;;;;;35.67;17.73;;;0.60;54.70;;;;;;4990744;28;20402;-76
2022/03/04 02:44:07;;;;;;;35.00;17.70;;;0.60;54.60;;;;;;4992388;28;20409;-76
2022/03/04 02:46:33;;;;;;;31.00;16.88;;;0.60;55.40;;;;;;4993824;28;20476;-75
2022/03/04 02:48:58;;;;;;;33.65;18.50;;;0.60;55.50;;;;;;4994523;28;20916;-75
2022/03/04 02:51:24;;;;;;;32.13;18.07;;;0.70;51.60;;;;;;4992039;28;20497;-76
2022/03/04 02:53:51;;;;;;;37.67;18.48;;;0.70;52.60;;;;;;4993634;28;20410;-75
2022/03/04 02:56:16;;;;;;;33.65;17.50;;;0.80;53.40;;;;;;4993813;28;20437;-75
2022/03/04 02:58:42;;;;;;;31.47;18.17;;;1.20;50.40;;;;;;4993944;28;20453;-75
2022/03/04 03:01:08;;;;;;;34.07;16.30;;;1.30;47.90;;;;;;4993539;28;20495;-75
2022/03/04 03:03:34;;;;;;;30.05;17.30;;;1.20;48.30;;;;;;4993471;28;22024;-74
2022/03/04 03:05:59;;;;;;;31.42;18.20;;;0.90;49.30;;;;;;4993764;28;20407;-74
2022/03/04 03:08:25;;;;;;;31.77;17.48;;;0.60;50.40;;;;;;4992147;28;20464;-74
2022/03/04 03:10:51;;;;;;;33.13;17.43;;;0.70;54.80;;;;;;4990046;28;20440;-75
2022/03/04 03:13:16;;;;;;;33.00;16.97;;;0.80;52.80;;;;;;4993147;28;20414;-73
2022/03/04 03:15:42;;;;;;;30.75;16.95;;;1.20;47.30;;;;;;4994082;28;20904;-75
2022/03/04 03:18:07;;;;;;;35.15;17.67;;;1.20;45.90;;;;;;4993953;28;20676;-74
2022/03/04 03:20:33;;;;;;;32.50;17.20;;;0.80;48.20;;;;;;4993901;28;20398;-75
2022/03/04 03:22:59;;;;;;;32.60;17.80;;;0.90;49.80;;;;;;4993487;28;20408;-75
2022/03/04 03:25:25;;;;;;;36.60;18.00;;;0.70;51.30;;;;;;4993679;28;20397;-75
2022/03/04 03:27:51;;;;;;;34.10;17.42;;;0.60;50.20;;;;;;4993243;28;20399;-76
2022/03/04 03:30:17;;;;;;;36.15;17.75;;;0.60;51.80;;;;;;4993337;28;20453;-76
2022/03/04 03:32:42;;;;;;;36.17;18.07;;;0.40;52.10;;;;;;4991039;28;20423;-75
2022/03/04 03:35:08;;;;;;;30.75;17.30;;;0.60;53.10;;;;;;4992660;28;20423;-75
2022/03/04 03:37:36;;;;;;;32.93;18.40;;;0.50;52.70;;;;;;4993679;28;20438;-73
2022/03/04 03:40:03;;;;;;;34.23;18.27;;;0.40;54.60;;;;;;4993439;28;21040;-75
2022/03/04 03:42:29;;;;;;;32.08;17.55;;;0.60;53.60;;;;;;4992805;28;20405;-75
2022/03/04 03:44:55;;;;;;;29.53;17.30;;;0.50;52.50;;;;;;4992503;28;20480;-75
2022/03/04 03:47:20;;;;;;;29.87;16.50;;;0.60;52.80;;;;;;4992671;28;20509;-75
2022/03/04 03:49:46;;;;;;;32.05;17.20;;;0.90;47.20;;;;;;4992496;28;20417;-75
2022/03/04 03:52:12;;;;;;;33.75;17.40;;;1.20;44.70;;;;;;4993239;28;20776;-75
2022/03/04 03:54:37;;;;;;;39.77;17.53;;;1.30;45.20;;;;;;4992936;28;20480;-75
2022/03/04 03:57:03;;;;;;;34.80;17.90;;;1.30;44.60;;;;;;4991975;28;20415;-74
2022/03/04 03:59:29;;;;;;;36.97;17.45;;;1.40;41.00;;;;;;4992592;28;20409;-75
2022/03/04 04:01:55;;;;;;;34.40;17.60;;;1.40;40.10;;;;;;4994117;28;20399;-75
2022/03/04 04:04:20;;;;;;;37.08;19.13;;;1.10;40.10;;;;;;4993293;28;20409;-75
2022/03/04 04:06:46;;;;;;;29.42;17.23;;;1.20;40.40;;;;;;4992999;28;20457;-75
2022/03/04 04:09:11;;;;;;;35.80;18.00;;;1.30;38.30;;;;;;4992652;28;20410;-75
2022/03/04 04:11:38;;;;;;;32.90;18.07;;;1.30;40.30;;;;;;4992914;28;20406;-75
2022/03/04 04:14:05;;;;;;;33.97;19.25;;;1.00;41.70;;;;;;4992726;28;20418;-75
2022/03/04 04:16:31;;;;;;;33.97;18.17;;;0.80;42.50;;;;;;4992729;28;20453;-75
2022/03/04 04:18:57;;;;;;;34.25;17.88;;;0.40;44.90;;;;;;4993354;28;20784;-75
2022/03/04 04:21:24;;;;;;;39.38;18.60;;;0.20;48.30;;;;;;4994256;28;20449;-76
2022/03/04 04:23:50;;;;;;;36.43;18.17;;;0.10;50.60;;;;;;5000541;28;20527;-74
2022/03/04 04:26:16;;;;;;;34.78;18.75;;;0.00;51.80;;;;;;5003231;28;20457;-76
2022/03/04 04:28:42;;;;;;;39.90;19.60;;;0.00;52.20;;;;;;5008106;28;20724;-75
2022/03/04 04:31:07;;;;;;;36.65;18.75;;;0.00;54.10;;;;;;5003714;28;20417;-75
2022/03/04 04:33:33;;;;;;;31.77;18.20;;;-0.10;54.00;;;;;;5004707;28;20445;-76
2022/03/04 04:35:58;;;;;;;34.80;18.70;;;-0.20;54.20;;;;;;5006508;28;20845;-75
2022/03/04 04:38:24;;;;;;;33.70;18.13;;;-0.20;55.00;;;;;;4996275;28;20416;-75
2022/03/04 04:40:49;;;;;;;34.50;17.83;;;-0.10;56.80;;;;;;4992627;28;20418;-74
2022/03/04 04:43:15;;;;;;;38.15;18.58;;;-0.20;56.20;;;;;;4988608;28;20395;-74
2022/03/04 04:45:42;;;;;;;37.93;20.00;;;0.10;56.10;;;;;;4991702;28;20502;-76
2022/03/04 04:48:07;;;;;;;37.15;19.83;;;0.30;52.30;;;;;;4992063;28;20398;-74
2022/03/04 04:50:33;;;;;;;38.70;19.23;;;0.10;52.40;;;;;;4990886;28;20409;-74
2022/03/04 04:52:58;;;;;;;39.33;18.80;;;0.00;52.70;;;;;;4992340;28;20406;-75
2022/03/04 04:55:24;;;;;;;38.03;18.90;;;0.20;53.40;;;;;;4991169;28;20411;-74
2022/03/04 04:57:49;;;;;;;44.90;19.80;;;0.50;50.50;;;;;;4992632;28;20398;-75
2022/03/04 05:00:17;;;;;;;33.23;18.63;;;0.30;49.60;;;;;;4992303;28;20461;-76
2022/03/04 05:02:44;;;;;;;38.15;19.45;;;0.30;51.40;;;;;;4991008;28;20820;-76
2022/03/04 05:05:10;;;;;;;33.97;18.90;;;0.30;50.90;;;;;;4990128;28;20406;-75
2022/03/04 05:07:36;;;;;;;39.05;19.60;;;0.30;50.10;;;;;;4992090;28;20421;-76
2022/03/04 05:10:03;;;;;;;37.00;19.23;;;0.30;51.20;;;;;;4991794;28;20472;-76
2022/03/04 05:12:29;;;;;;;34.67;19.10;;;0.10;50.60;;;;;;4991210;28;20832;-76
2022/03/04 05:14:55;;;;;;;34.10;18.85;;;0.00;52.80;;;;;;4991970;28;20805;-73
2022/03/04 05:17:21;;;;;;;41.58;20.38;;;-0.10;55.20;;;;;;4991331;28;20410;-76
2022/03/04 05:19:46;;;;;;;38.40;20.05;;;-0.20;56.40;;;;;;4992575;28;20405;-76
2022/03/04 05:22:12;;;;;;;40.20;21.03;;;0.00;58.50;;;;;;4992570;28;20791;-74
2022/03/04 05:24:37;;;;;;;41.33;19.73;;;0.00;57.60;;;;;;4991120;28;20403;-73
2022/03/04 05:27:03;;;;;;;38.75;20.48;;;-0.10;58.20;;;;;;4990922;28;20398;-75
2022/03/04 05:29:29;;;;;;;39.50;20.73;;;0.00;56.00;;;;;;4991659;28;20498;-76
2022/03/04 05:31:55;;;;;;;42.13;21.88;;;-0.10;56.30;;;;;;4991403;28;20489;-75
2022/03/04 05:34:20;;;;;;;41.30;21.65;;;-0.20;56.80;;;;;;4990741;28;20433;-76
2022/03/04 05:36:46;;;;;;;46.43;23.90;;;-0.30;58.00;;;;;;4990361;28;20543;-75
2022/03/04 05:39:11;;;;;;;52.07;23.83;;;-0.40;59.00;;;;;;4990671;28;20799;-74
2022/03/04 05:41:37;;;;;;;39.97;21.27;;;-0.50;59.30;;;;;;4990579;28;20461;-75
2022/03/04 05:44:06;;;;;;;44.75;21.52;;;-0.50;59.00;;;;;;4987519;28;20408;-74
2022/03/04 05:46:32;;;;;;;50.47;25.23;;;-0.40;61.60;;;;;;4990879;28;20776;-75
2022/03/04 05:48:58;;;;;;;42.47;20.85;;;-0.40;62.00;;;;;;4991905;28;20967;-76
2022/03/04 05:51:23;;;;;;;35.95;19.30;;;-0.30;61.80;;;;;;4990929;28;20542;-77
2022/03/04 05:53:49;;;;;;;40.15;20.15;;;-0.20;61.70;;;;;;4989526;28;20433;-74
2022/03/04 05:56:15;;;;;;;40.93;20.30;;;-0.10;61.30;;;;;;4990539;28;20489;-76
2022/03/04 05:58:41;;;;;;;36.28;18.92;;;-0.10;58.60;;;;;;4991216;28;20409;-75
2022/03/04 06:01:06;;;;;;;38.10;20.90;;;-0.30;58.90;;;;;;5003013;28;20406;-75
2022/03/04 06:03:33;;;;;;;40.67;21.45;;;-0.40;59.40;;;;;;5003018;28;20426;-74
2022/03/04 06:05:59;;;;;;;38.42;19.73;;;-0.50;61.70;;;;;;4995133;28;20437;-75
2022/03/04 06:08:25;;;;;;;35.20;19.27;;;-0.30;63.50;;;;;;4993064;28;20407;-75
2022/03/04 06:10:50;;;;;;;37.70;20.10;;;-0.40;61.80;;;;;;4993527;28;20549;-75
2022/03/04 06:13:16;;;;;;;42.63;21.43;;;-0.50;61.80;;;;;;4994859;28;20395;-74
2022/03/04 06:15:42;;;;;;;37.58;19.35;;;-0.60;62.50;;;;;;4995381;28;20398;-74
2022/03/04 06:18:07;;;;;;;39.60;19.63;;;-0.60;63.00;;;;;;4995017;28;20401;-74
2022/03/04 06:20:33;;;;;;;41.10;19.30;;;-0.60;63.60;;;;;;4994493;28;20426;-74
2022/03/04 06:22:58;;;;;;;39.40;19.47;;;-0.60;64.10;;;;;;4993867;28;20497;-74
2022/03/04 06:25:24;;;;;;;37.47;18.75;;;-0.60;64.80;;;;;;4996428;28;20402;-74
2022/03/04 06:27:53;;;;;;;38.53;19.65;;;-0.60;61.70;;;;;;4998077;28;20417;-74
2022/03/04 06:30:19;;;;;;;38.05;19.80;;;-0.50;62.20;;;;;;4999642;28;20398;-74
2022/03/04 06:32:44;;;;;;;52.30;24.85;;;-0.50;61.30;;;;;;4998270;28;20428;-76
2022/03/04 06:35:10;;;;;;;47.30;22.70;;;-0.30;61.20;;;;;;4997989;28;20464;-74
2022/03/04 06:37:35;;;;;;;35.50;19.80;;;-0.20;60.70;;;;;;4995610;28;20412;-75
2022/03/04 06:40:05;;;;;;;55.40;26.17;;;0.00;55.40;;;;;;4997207;28;20398;-75
2022/03/04 06:42:31;;;;;;;57.38;28.80;;;0.10;54.20;;;;;;4997339;28;20398;-75
2022/03/04 06:44:56;;;;;;;65.30;33.00;;;0.20;55.10;;;;;;5007795;28;20413;-75
2022/03/04 06:47:22;;;;;;;61.87;27.60;;;0.60;56.50;;;;;;5003882;28;20414;-78
2022/03/04 06:49:48;;;;;;;47.25;25.70;;;1.10;51.00;;;;;;4995417;28;20484;-75
2022/03/04 06:52:13;;;;;;;56.10;25.77;;;1.40;47.10;;;;;;4996803;28;20437;-74
2022/03/04 06:54:39;;;;;;;45.00;22.50;;;1.50;46.80;;;;;;4993612;28;20410;-75
2022/03/04 06:57:05;;;;;;;40.55;20.85;;;1.60;44.80;;;;;;4996613;28;20889;-74
2022/03/04 06:59:30;;;;;;;40.33;20.40;;;1.60;42.10;;;;;;4994378;28;20489;-75
2022/03/04 07:01:56;;;;;;;50.93;24.97;;;1.70;42.70;;;;;;4996514;28;20440;-76
2022/03/04 07:04:22;;;;;;;45.30;19.83;;;1.70;45.30;;;;;;4996377;28;20456;-76
2022/03/04 07:06:47;;;;;;;40.40;21.33;;;1.60;47.00;;;;;;5002312;28;20497;-76
2022/03/04 07:09:13;;;;;;;40.60;21.00;;;1.70;48.20;;;;;;5008501;28;20403;-75
2022/03/04 07:11:38;;;;;;;43.90;20.63;;;1.50;46.90;;;;;;4995716;28;20413;-75
2022/03/04 07:14:04;;;;;;;50.78;21.67;;;1.50;50.60;;;;;;4999083;28;20764;-75
2022/03/04 07:16:30;;;;;;;46.97;20.70;;;1.90;45.30;;;;;;4994158;28;21169;-74
2022/03/04 07:18:56;;;;;;;45.50;20.03;;;2.10;43.60;;;;;;4993173;28;20415;-75
2022/03/04 07:21:21;;;;;;;39.70;19.42;;;2.30;42.10;;;;;;4992494;28;20505;-75
2022/03/04 07:23:47;;;;;;;48.40;21.40;;;2.30;43.70;;;;;;4994246;28;20410;-75
2022/03/04 07:26:12;;;;;;;42.93;20.40;;;2.30;41.90;;;;;;4995860;28;20759;-74
2022/03/04 07:28:38;;;;;;;38.67;19.55;;;2.10;43.30;;;;;;4998788;28;20482;-75
2022/03/04 07:31:04;;;;;;;42.95;20.38;;;2.10;45.10;;;;;;5006381;28;20418;-75
2022/03/04 07:33:29;;;;;;;46.67;20.43;;;2.30;45.30;;;;;;4996143;28;20444;-76
2022/03/04 07:35:55;;;;;;;44.90;19.97;;;2.50;44.00;;;;;;5008031;28;20411;-75
2022/03/04 07:38:21;;;;;;;39.35;19.73;;;2.80;39.80;;;;;;5009904;28;20405;-75
2022/03/04 07:40:46;;;;;;;37.35;19.55;;;2.90;40.10;;;;;;4997259;28;20410;-75
2022/03/04 07:43:12;;;;;;;43.83;20.00;;;3.00;37.10;;;;;;4995059;28;20987;-75
2022/03/04 07:45:38;;;;;;;39.88;20.65;;;3.20;34.50;;;;;;4992763;28;20417;-76
2022/03/04 07:48:04;;;;;;;45.13;20.70;;;3.30;35.10;;;;;;5000541;28;20378;-76
2022/03/04 07:50:29;;;;;;;41.53;20.38;;;3.20;36.50;;;;;;5000863;28;20442;-77
2022/03/04 07:52:55;;;;;;;39.78;21.35;;;3.20;36.70;;;;;;5006944;28;20414;-77
2022/03/04 07:55:21;;;;;;;46.20;21.23;;;3.20;36.90;;;;;;4999531;28;20423;-77
2022/03/04 07:57:46;;;;;;;44.23;20.37;;;3.40;36.30;;;;;;4994834;28;20470;-77
2022/03/04 08:00:15;;;;;;;39.90;20.00;;;3.50;34.20;;;;;;4998219;28;20403;-78
2022/03/04 08:02:41;;;;;;;41.47;20.35;;;3.40;34.70;;;;;;4995098;28;20457;-76
2022/03/04 08:05:10;;;;;;;41.03;20.70;;;3.50;34.40;;;;;;4991954;28;20422;-76
2022/03/04 08:07:37;;;;;;;36.13;19.63;;;3.60;31.90;;;;;;4992870;28;20417;-76
2022/03/04 08:10:07;;;;;;;38.63;18.60;;;3.60;31.90;;;;;;4993074;28;20406;-75
2022/03/04 08:12:33;;;;;;;38.85;19.42;;;3.80;33.70;;;;;;4994344;28;20760;-75
2022/03/04 08:14:58;;;;;;;43.17;19.57;;;4.00;30.00;;;;;;4991949;28;20426;-76
2022/03/04 08:17:24;;;;;;;40.60;19.20;;;4.20;30.80;;;;;;4993275;28;20915;-76
2022/03/04 08:19:49;;;;;;;39.15;20.13;;;4.30;30.70;;;;;;4988242;28;20411;-76
2022/03/04 08:22:15;;;;;;;34.17;19.67;;;4.30;27.90;;;;;;4991247;28;20410;-77
2022/03/04 08:24:40;;;;;;;37.67;19.98;;;4.40;26.60;;;;;;4991782;28;20760;-76
2022/03/04 08:27:07;;;;;;;35.55;20.05;;;4.70;25.00;;;;;;4991682;28;20869;-76
2022/03/04 08:29:32;;;;;;;36.50;19.80;;;4.80;24.00;;;;;;4990340;28;20494;-76
2022/03/04 08:31:58;;;;;;;38.22;20.48;;;5.00;24.20;;;;;;4992068;28;20497;-77
2022/03/04 08:34:24;;;;;;;40.70;20.50;;;5.10;23.40;;;;;;4991499;28;20464;-77
2022/03/04 08:36:49;;;;;;;39.87;20.60;;;5.10;22.80;;;;;;4992310;28;20406;-75
2022/03/04 08:39:16;;;;;;;38.35;20.85;;;5.20;23.10;;;;;;4992918;28;20401;-77
2022/03/04 08:41:42;;;;;;;41.47;22.08;;;5.40;22.70;;;;;;4991433;28;20461;-76
2022/03/04 08:44:08;;;;;;;42.60;22.90;;;5.30;21.30;;;;;;4988292;28;20406;-77
2022/03/04 08:46:35;;;;;;;42.03;21.58;;;5.40;22.20;;;;;;4991192;28;20430;-77
2022/03/04 08:49:02;;;;;;;38.90;21.70;;;5.50;21.50;;;;;;4991418;28;20413;-77
2022/03/04 08:51:27;;;;;;;41.42;20.95;;;5.70;21.60;;;;;;4994691;28;20410;-76
2022/03/04 08:53:54;;;;;;;40.63;23.13;;;5.80;22.10;;;;;;4994102;28;21418;-77
2022/03/04 08:56:20;;;;;;;42.92;22.35;;;5.90;20.80;;;;;;4993491;28;20406;-76
2022/03/04 08:58:46;;;;;;;43.83;23.08;;;6.00;20.40;;;;;;4992839;28;20916;-78
2022/03/04 09:01:12;;;;;;;43.75;23.02;;;6.00;19.50;;;;;;4991062;28;20417;-76
2022/03/04 09:03:37;;;;;;;43.40;22.80;;;6.10;20.00;;;;;;4994333;28;20749;-75
2022/03/04 09:06:03;;;;;;;43.70;22.70;;;6.30;21.00;;;;;;4993133;28;20470;-76
2022/03/04 09:08:29;;;;;;;41.30;22.20;;;6.40;20.20;;;;;;4994241;28;20493;-77
2022/03/04 09:10:55;;;;;;;42.53;22.67;;;6.40;19.50;;;;;;4994911;28;20442;-78
2022/03/04 09:13:20;;;;;;;43.33;22.93;;;6.50;19.30;;;;;;4995251;28;20415;-77
2022/03/04 09:15:46;;;;;;;41.17;22.00;;;6.60;19.50;;;;;;4996942;28;20406;-77
2022/03/04 09:18:12;;;;;;;44.20;24.33;;;6.70;18.30;;;;;;4994310;28;20481;-77
2022/03/04 09:20:37;;;;;;;45.45;24.00;;;6.70;19.00;;;;;;4994514;28;20486;-77
2022/03/04 09:23:03;;;;;;;43.97;23.55;;;6.90;18.90;;;;;;4995433;28;20899;-77
2022/03/04 09:25:28;;;;;;;41.45;23.17;;;6.90;18.50;;;;;;4991725;28;20441;-76
2022/03/04 09:27:54;;;;;;;47.47;24.67;;;7.00;17.80;;;;;;4993016;28;20911;-75
2022/03/04 09:30:20;;;;;;;39.17;22.25;;;7.10;18.20;;;;;;4990774;28;20490;-73
2022/03/04 09:32:46;;;;;;;39.73;23.30;;;7.00;17.60;;;;;;4991038;28;20932;-76
2022/03/04 09:35:12;;;;;;;44.35;23.02;;;7.20;17.80;;;;;;4990271;28;20410;-76
2022/03/04 09:37:38;;;;;;;43.17;23.13;;;7.20;18.20;;;;;;4990779;28;20773;-75
2022/03/04 09:40:05;;;;;;;43.17;22.20;;;7.40;17.70;;;;;;4994256;28;20649;-77
2022/03/04 09:42:33;;;;;;;41.55;22.35;;;7.60;18.90;;;;;;4994187;28;20424;-75
2022/03/04 09:44:59;;;;;;;45.95;25.05;;;7.50;16.20;;;;;;4994930;28;20629;-74
2022/03/04 09:47:24;;;;;;;44.72;24.88;;;7.50;17.90;;;;;;4994238;28;20485;-76
2022/03/04 09:49:52;;;;;;;44.72;25.00;;;7.80;16.80;;;;;;4993648;28;20726;-73
2022/03/04 09:52:18;;;;;;;46.30;24.50;;;7.80;16.00;;;;;;4996559;28;20411;-75
2022/03/04 09:54:51;;;;;;;42.57;24.23;;;7.90;15.00;;;;;;4994373;28;20421;-75
2022/03/04 09:57:21;;;;;;;50.67;24.90;;;7.80;15.00;;;;;;4995030;28;20421;-77
2022/03/04 09:59:46;;;;;;;43.80;25.17;;;7.80;15.50;;;;;;4994913;28;20402;-76
2022/03/04 10:02:13;;;;;;;46.70;23.93;;;7.90;15.80;;;;;;4993866;28;20772;-77
2022/03/04 10:04:42;;;;;;;52.27;24.10;;;7.90;15.80;;;;;;5005776;28;20423;-78
2022/03/04 10:07:18;;;;;;;42.50;24.60;;;8.00;15.20;;;;;;4994187;28;20402;-76
2022/03/04 10:09:49;;;;;;;44.90;24.83;;;8.00;15.60;;;;;;4995311;28;20418;-77
2022/03/04 10:12:16;;;;;;;45.38;24.48;;;8.10;14.70;;;;;;4994783;28;20409;-76
2022/03/04 10:15:01;;;;;;;42.28;23.90;;;8.30;14.30;;;;;;4997533;28;20959;-78
2022/03/04 10:17:27;;;;;;;43.85;24.50;;;8.30;14.30;;;;;;4999632;28;20401;-77
2022/03/04 10:19:57;;;;;;;45.05;25.15;;;8.40;14.50;;;;;;5000113;28;20414;-78
2022/03/04 10:22:35;;;;;;;46.35;24.73;;;8.20;14.60;;;;;;4995966;28;20404;-77
2022/03/04 10:25:01;;;;;;;47.17;24.88;;;8.30;15.70;;;;;;4992082;28;20415;-76
2022/03/04 10:27:33;;;;;;;45.40;24.80;;;8.40;15.60;;;;;;4992033;28;20420;-77
2022/03/04 10:29:58;;;;;;;46.38;24.50;;;8.40;14.00;;;;;;4990359;28;20815;-76
2022/03/04 10:32:26;;;;;;;46.20;24.95;;;8.20;14.10;;;;;;5002106;28;20470;-76
2022/03/04 10:35:15;;;;;;;45.83;24.80;;;8.30;14.20;;;;;;4998738;28;20528;-76
2022/03/04 10:37:51;;;;;;;43.42;23.60;;;8.40;13.50;;;;;;4995403;28;20414;-76
2022/03/04 10:40:21;;;;;;;41.03;24.20;;;8.70;13.60;;;;;;5003026;28;20436;-76
2022/03/04 10:42:51;;;;;;;46.17;24.00;;;8.60;13.40;;;;;;5000075;28;20401;-77
2022/03/04 10:45:23;;;;;;;46.85;24.67;;;8.80;12.90;;;;;;4995593;28;20400;-77
2022/03/04 10:47:52;;;;;;;50.22;25.92;;;8.90;12.70;;;;;;4993848;28;20406;-77
2022/03/04 10:50:29;;;;;;;47.47;23.63;;;8.80;12.20;;;;;;4994933;28;20935;-77
2022/03/04 10:53:11;;;;;;;40.08;22.50;;;8.80;12.60;;;;;;4992239;28;20412;-76
2022/03/04 10:55:48;;;;;;;42.38;23.02;;;8.90;12.30;;;;;;4998314;28;20413;-76
2022/03/04 10:58:22;;;;;;;36.33;21.52;;;8.80;11.50;;;;;;4991857;28;20406;-75
2022/03/04 11:00:59;;;;;;;43.83;24.30;;;8.90;13.10;;;;;;4987572;28;20402;-76
2022/03/04 11:03:30;;;;;;;40.13;22.48;;;8.90;11.50;;;;;;4992661;28;20433;-76
2022/03/04 11:06:10;;;;;;;40.15;22.10;;;9.10;12.40;;;;;;4994506;28;20402;-76
2022/03/04 11:08:36;;;;;;;46.40;22.83;;;9.20;11.40;;;;;;4996018;28;20413;-77
2022/03/04 11:11:03;;;;;;;39.33;22.65;;;9.20;11.60;;;;;;4997670;28;20398;-76
2022/03/04 11:13:35;;;;;;;42.25;21.27;;;9.20;11.10;;;;;;5000347;28;20527;-77
2022/03/04 11:16:05;;;;;;;38.60;20.63;;;9.40;12.00;;;;;;4996193;28;20399;-76
2022/03/04 11:18:32;;;;;;;40.30;21.98;;;9.60;11.60;;;;;;4997613;28;20405;-76
2022/03/04 11:20:59;;;;;;;35.78;20.73;;;9.70;11.30;;;;;;4997593;28;20406;-76
2022/03/04 11:23:27;;;;;;;39.63;21.95;;;9.70;9.80;;;;;;5008891;28;20775;-76
2022/03/04 11:26:09;;;;;;;41.78;21.42;;;9.70;9.20;;;;;;4993356;28;20403;-77
2022/03/04 11:28:38;;;;;;;41.50;21.40;;;9.70;11.00;;;;;;4994248;28;20722;-76
2022/03/04 11:31:07;;;;;;;39.45;22.15;;;9.90;10.00;;;;;;4994737;28;20402;-76
2022/03/04 11:33:35;;;;;;;40.08;21.92;;;9.80;10.30;;;;;;4993826;28;20916;-75
2022/03/04 11:36:17;;;;;;;42.38;22.25;;;9.90;10.10;;;;;;4992594;28;20922;-76
2022/03/04 11:38:48;;;;;;;40.17;22.38;;;9.90;9.80;;;;;;4995502;28;20438;-76
2022/03/04 11:41:18;;;;;;;43.42;23.30;;;9.70;8.70;;;;;;4994347;28;20401;-76
2022/03/04 11:43:49;;;;;;;40.63;21.67;;;9.60;9.00;;;;;;4995671;28;20787;-76
2022/03/04 11:46:25;;;;;;;37.97;22.10;;;9.70;9.40;;;;;;4994580;28;20431;-77
2022/03/04 11:49:22;;;;;;;39.95;21.88;;;9.90;9.60;;;;;;5000930;28;20538;-77
2022/03/04 11:52:11;;;;;;;43.35;21.90;;;10.20;9.70;;;;;;5008228;28;20406;-76
2022/03/04 11:54:45;;;;;;;38.00;20.60;;;10.30;7.80;;;;;;5011682;28;20410;-75
2022/03/04 11:57:22;;;;;;;38.17;22.17;;;10.20;8.10;;;;;;4998855;28;20486;-77
2022/03/04 11:59:55;;;;;;;41.75;21.75;;;10.20;8.50;;;;;;4994745;28;20773;-76
2022/03/04 12:02:26;;;;;;;40.10;20.87;;;10.40;8.00;;;;;;4994359;28;20415;-76
2022/03/04 12:05:21;;;;;;;34.05;19.80;;;10.70;8.80;;;;;;4993778;28;20407;-77
2022/03/04 12:07:52;;;;;;;38.88;20.25;;;10.70;9.20;;;;;;4988732;28;20490;-77
2022/03/04 12:10:21;;;;;;;37.85;20.13;;;10.80;8.10;;;;;;4997301;28;20912;-77
2022/03/04 12:13:02;;;;;;;39.78;21.42;;;10.80;8.20;;;;;;4995137;28;20501;-76
2022/03/04 12:15:37;;;;;;;34.28;19.83;;;10.80;7.90;;;;;;4995918;28;20497;-75
2022/03/04 12:18:23;;;;;;;32.78;19.10;;;10.70;7.00;;;;;;4993313;28;20871;-75
2022/03/04 12:21:13;;;;;;;30.20;17.67;;;10.70;5.60;;;;;;4995385;28;20420;-73
2022/03/04 12:23:42;;;;;;;34.72;18.30;;;10.70;4.60;;;;;;4989432;28;20916;-74
2022/03/04 12:26:11;;;;;;;38.85;21.63;;;11.00;6.60;;;;;;4996141;28;20483;-76
2022/03/04 12:28:46;;;;;;;39.88;21.55;;;10.90;6.80;;;;;;4999504;28;20402;-76
2022/03/04 12:31:11;;;;;;;34.40;19.50;;;11.00;6.00;;;;;;4996602;28;20406;-77
2022/03/04 12:33:40;;;;;;;34.80;19.60;;;11.00;6.40;;;;;;4994938;28;20421;-75
2022/03/04 12:36:08;;;;;;;32.45;19.02;;;11.00;7.20;;;;;;4992393;28;20734;-76